createdAt,value
2016-12-28T00:00:03.510Z,0
2016-12-28T00:00:44.656Z,0
2016-12-28T00:01:26.236Z,0
2016-12-28T00:02:07.847Z,0
2016-12-28T00:02:49.427Z,0
2016-12-28T00:03:31.080Z,0
2016-12-28T00:04:12.775Z,0
2016-12-28T00:04:54.486Z,0
2016-12-28T00:05:36.162Z,0
2016-12-28T00:06:17.857Z,0
2016-12-28T00:06:59.368Z,0
2016-12-28T00:07:41.039Z,0
2016-12-28T00:09:40.840Z,0
2016-12-28T00:10:22.154Z,0
2016-12-28T00:11:03.839Z,0
2016-12-28T00:11:44.827Z,0
2016-12-28T00:12:25.585Z,0
2016-12-28T00:14:24.716Z,0
2016-12-28T00:15:05.427Z,0
2016-12-28T00:17:26.106Z,0
2016-12-28T00:18:07.894Z,0
2016-12-28T00:18:49.613Z,0
2016-12-28T00:19:31.380Z,0
2016-12-28T00:20:13.086Z,0
2016-12-28T00:20:54.789Z,0
2016-12-28T00:21:36.456Z,0
2016-12-28T00:22:18.129Z,0
2016-12-28T00:26:12.909Z,0
2016-12-28T00:26:54.654Z,0
2016-12-28T00:27:36.415Z,0
2016-12-28T00:28:18.215Z,0
2016-12-28T00:28:59.900Z,0
2016-12-28T00:29:41.644Z,0
2016-12-28T00:30:23.097Z,0
2016-12-28T00:31:04.823Z,0
2016-12-28T00:31:46.609Z,0
2016-12-28T00:32:28.384Z,0
2016-12-28T00:33:10.064Z,0
2016-12-28T00:33:51.711Z,0
2016-12-28T00:34:33.463Z,0
2016-12-28T00:35:14.840Z,0
2016-12-28T00:35:56.558Z,0
2016-12-28T00:36:38.276Z,0
2016-12-28T00:37:19.955Z,0
2016-12-28T00:38:01.695Z,0
2016-12-28T00:38:43.408Z,0
2016-12-28T00:39:25.183Z,0
2016-12-28T00:40:06.985Z,0
2016-12-28T00:40:48.714Z,0
2016-12-28T00:41:30.405Z,0
2016-12-28T00:42:12.112Z,0
2016-12-28T00:46:06.931Z,0
2016-12-28T00:46:48.630Z,0
2016-12-28T00:47:30.423Z,0
2016-12-28T00:48:12.189Z,0
2016-12-28T00:48:53.940Z,0
2016-12-28T00:49:35.694Z,0
2016-12-28T00:50:17.458Z,0
2016-12-28T00:50:59.209Z,0
2016-12-28T00:51:40.988Z,0
2016-12-28T00:52:22.708Z,0
2016-12-28T00:53:04.484Z,0
2016-12-28T00:53:46.253Z,0
2016-12-28T00:54:27.966Z,0
2016-12-28T00:55:09.694Z,0
2016-12-28T00:55:51.358Z,0
2016-12-28T00:56:33.118Z,0
2016-12-28T00:57:14.769Z,0
2016-12-28T00:57:56.153Z,0
2016-12-28T00:58:37.896Z,0
2016-12-28T00:59:19.412Z,0
2016-12-28T01:00:01.100Z,0
2016-12-28T01:00:42.499Z,0
2016-12-28T01:01:24.154Z,0
2016-12-28T01:02:05.572Z,0
2016-12-28T01:02:47.393Z,0
2016-12-28T01:03:29.155Z,0
2016-12-28T01:04:10.798Z,0
2016-12-28T01:04:52.420Z,0
2016-12-28T01:05:34.079Z,0
2016-12-28T01:06:15.805Z,0
2016-12-28T01:06:57.362Z,0
2016-12-28T01:07:39.027Z,0
2016-12-28T01:08:20.812Z,0
2016-12-28T01:09:02.613Z,0
2016-12-28T01:09:44.388Z,0
2016-12-28T01:10:26.220Z,0
2016-12-28T01:11:07.944Z,0
2016-12-28T01:11:49.648Z,0
2016-12-28T01:12:31.456Z,0
2016-12-28T01:13:13.283Z,0
2016-12-28T01:13:55.032Z,0
2016-12-28T01:14:36.808Z,0
2016-12-28T01:15:18.569Z,0
2016-12-28T01:16:00.368Z,0
2016-12-28T01:16:41.613Z,0
2016-12-28T01:17:22.149Z,0
2016-12-28T01:18:02.673Z,0
2016-12-28T01:18:43.740Z,0
2016-12-28T01:19:25.540Z,0
2016-12-28T01:20:07.316Z,0
2016-12-28T01:20:49.094Z,0
2016-12-28T01:21:30.862Z,0
2016-12-28T01:22:12.632Z,0
2016-12-28T01:22:54.400Z,0
2016-12-28T01:23:36.120Z,0
2016-12-28T01:24:17.958Z,0
2016-12-28T01:24:59.785Z,0
2016-12-28T01:25:41.553Z,0
2016-12-28T01:26:23.315Z,0
2016-12-28T01:27:04.935Z,0
2016-12-28T01:27:46.549Z,0
2016-12-28T01:28:28.350Z,0
2016-12-28T01:29:10.117Z,0
2016-12-28T01:29:51.948Z,0
2016-12-28T01:30:33.697Z,0
2016-12-28T01:31:15.499Z,0
2016-12-28T01:31:57.274Z,0
2016-12-28T01:32:39.031Z,0
2016-12-28T01:33:20.800Z,0
2016-12-28T01:34:02.444Z,0
2016-12-28T01:34:44.185Z,0
2016-12-28T01:35:25.906Z,0
2016-12-28T01:36:07.692Z,0
2016-12-28T01:36:49.494Z,0
2016-12-28T01:37:31.184Z,0
2016-12-28T01:38:12.904Z,0
2016-12-28T01:38:54.618Z,0
2016-12-28T01:39:36.363Z,0
2016-12-28T01:40:18.108Z,0
2016-12-28T01:40:59.846Z,0
2016-12-28T01:45:31.098Z,0
2016-12-28T01:46:12.607Z,0
2016-12-28T01:48:12.628Z,0
2016-12-28T01:48:54.197Z,0
2016-12-28T01:49:36.053Z,0
2016-12-28T01:50:17.938Z,0
2016-12-28T01:50:59.380Z,0
2016-12-28T01:51:41.124Z,0
2016-12-28T01:52:22.912Z,0
2016-12-28T01:54:23.015Z,0
2016-12-28T01:55:04.543Z,0
2016-12-28T01:57:19.889Z,0
2016-12-28T01:58:01.604Z,0
2016-12-28T01:58:43.365Z,0
2016-12-28T01:59:24.904Z,0
2016-12-28T02:00:06.744Z,0
2016-12-28T02:04:32.649Z,0
2016-12-28T02:05:14.235Z,0
2016-12-28T02:07:13.366Z,0
2016-12-28T02:07:53.879Z,0
2016-12-28T02:08:34.415Z,0
2016-12-28T02:09:14.938Z,0
2016-12-28T02:09:55.459Z,0
2016-12-28T02:10:35.992Z,0
2016-12-28T02:11:16.511Z,0
2016-12-28T02:11:57.044Z,0
2016-12-28T02:12:37.574Z,0
2016-12-28T02:13:18.097Z,0
2016-12-28T02:13:58.657Z,0
2016-12-28T02:14:39.187Z,0
2016-12-28T02:15:19.718Z,0
2016-12-28T02:16:00.251Z,0
2016-12-28T02:16:40.792Z,0
2016-12-28T02:17:21.328Z,0
2016-12-28T02:18:01.858Z,0
2016-12-28T02:18:42.383Z,0
2016-12-28T02:19:22.893Z,0
2016-12-28T02:20:03.429Z,0
2016-12-28T02:20:43.947Z,0
2016-12-28T02:21:24.472Z,0
2016-12-28T02:22:05.016Z,0
2016-12-28T02:22:45.552Z,0
2016-12-28T02:23:26.086Z,0
2016-12-28T02:24:06.611Z,0
2016-12-28T02:24:47.130Z,0
2016-12-28T02:25:27.652Z,0
2016-12-28T02:26:08.189Z,0
2016-12-28T02:26:48.729Z,0
2016-12-28T02:27:29.251Z,0
2016-12-28T02:28:09.779Z,0
2016-12-28T02:28:50.320Z,0
2016-12-28T02:29:30.844Z,0
2016-12-28T02:30:11.372Z,0
2016-12-28T02:30:51.891Z,0
2016-12-28T02:31:32.422Z,0
2016-12-28T02:32:12.959Z,0
2016-12-28T02:32:53.544Z,0
2016-12-28T02:33:34.079Z,0
2016-12-28T02:34:14.613Z,0
2016-12-28T02:34:55.155Z,0
2016-12-28T02:35:35.701Z,0
2016-12-28T02:36:16.255Z,0
2016-12-28T02:36:56.790Z,0
2016-12-28T02:37:37.320Z,0
2016-12-28T02:38:17.846Z,0
2016-12-28T02:38:58.381Z,0
2016-12-28T02:39:38.916Z,0
2016-12-28T02:40:19.453Z,0
2016-12-28T02:40:59.991Z,0
2016-12-28T02:41:40.531Z,0
2016-12-28T02:42:21.070Z,0
2016-12-28T02:43:01.607Z,0
2016-12-28T02:43:42.140Z,0
2016-12-28T02:44:22.690Z,0
2016-12-28T02:45:03.218Z,0
2016-12-28T02:45:43.739Z,0
2016-12-28T02:46:24.284Z,0
2016-12-28T02:47:04.801Z,0
2016-12-28T02:47:45.332Z,0
2016-12-28T02:48:25.858Z,0
2016-12-28T02:49:06.385Z,0
2016-12-28T02:49:46.957Z,0
2016-12-28T02:50:27.494Z,0
2016-12-28T02:51:08.017Z,0
2016-12-28T02:51:48.538Z,0
2016-12-28T02:52:29.058Z,0
2016-12-28T02:53:09.596Z,0
2016-12-28T02:53:50.116Z,0
2016-12-28T02:54:30.636Z,0
2016-12-28T02:55:11.168Z,0
2016-12-28T02:55:51.699Z,0
2016-12-28T02:56:32.234Z,0
2016-12-28T02:57:12.766Z,0
2016-12-28T02:57:53.289Z,0
2016-12-28T02:58:33.827Z,0
2016-12-28T02:59:14.364Z,0
2016-12-28T02:59:54.894Z,0
2016-12-28T03:00:35.416Z,0
2016-12-28T03:01:15.945Z,0
2016-12-28T03:01:56.486Z,0
2016-12-28T03:02:37.017Z,0
2016-12-28T03:03:17.549Z,0
2016-12-28T03:03:58.083Z,0
2016-12-28T03:04:38.614Z,0
2016-12-28T03:05:19.149Z,0
2016-12-28T03:05:59.688Z,0
2016-12-28T03:06:40.221Z,0
2016-12-28T03:07:20.752Z,0
2016-12-28T03:08:01.284Z,0
2016-12-28T03:08:41.824Z,0
2016-12-28T03:09:22.352Z,0
2016-12-28T03:10:02.885Z,0
2016-12-28T03:10:43.422Z,0
2016-12-28T03:11:23.955Z,0
2016-12-28T03:12:04.496Z,0
2016-12-28T03:12:45.042Z,0
2016-12-28T03:13:25.541Z,0
2016-12-28T03:14:06.064Z,0
2016-12-28T03:14:46.594Z,0
2016-12-28T03:15:27.127Z,0
2016-12-28T03:16:07.654Z,0
2016-12-28T03:16:48.186Z,0
2016-12-28T03:17:28.718Z,0
2016-12-28T03:18:09.238Z,0
2016-12-28T03:18:49.769Z,0
2016-12-28T03:19:30.305Z,0
2016-12-28T03:20:10.843Z,0
2016-12-28T03:20:51.374Z,0
2016-12-28T03:21:31.923Z,0
2016-12-28T03:22:12.458Z,0
2016-12-28T03:22:52.996Z,0
2016-12-28T03:23:33.524Z,0
2016-12-28T03:24:14.045Z,0
2016-12-28T03:24:54.580Z,0
2016-12-28T03:25:35.112Z,0
2016-12-28T03:26:15.649Z,0
2016-12-28T03:26:56.184Z,0
2016-12-28T03:27:36.708Z,0
2016-12-28T03:28:17.229Z,0
2016-12-28T03:28:57.755Z,0
2016-12-28T03:29:38.285Z,0
2016-12-28T03:30:18.821Z,0
2016-12-28T03:30:59.350Z,0
2016-12-28T03:31:39.875Z,0
2016-12-28T03:32:20.412Z,0
2016-12-28T03:33:00.943Z,0
2016-12-28T03:33:41.479Z,0
2016-12-28T03:34:22.000Z,0
2016-12-28T03:35:02.550Z,0
2016-12-28T03:35:43.085Z,0
2016-12-28T03:36:23.617Z,0
2016-12-28T03:37:04.153Z,0
2016-12-28T03:37:44.766Z,0
2016-12-28T03:38:25.309Z,0
2016-12-28T03:39:05.842Z,0
2016-12-28T03:39:46.374Z,0
2016-12-28T03:40:26.912Z,0
2016-12-28T03:41:07.429Z,0
2016-12-28T03:41:47.954Z,0
2016-12-28T03:42:28.487Z,0
2016-12-28T03:43:09.023Z,0
2016-12-28T03:43:49.551Z,0
2016-12-28T03:44:30.084Z,0
2016-12-28T03:45:10.602Z,0
2016-12-28T03:45:51.171Z,0
2016-12-28T03:46:31.704Z,0
2016-12-28T03:47:12.253Z,0
2016-12-28T03:47:52.775Z,0
2016-12-28T03:48:40.210Z,0
2016-12-28T03:49:20.738Z,0
2016-12-28T03:50:01.265Z,0
2016-12-28T03:50:41.803Z,0
2016-12-28T03:51:22.333Z,0
2016-12-28T03:52:02.855Z,0
2016-12-28T03:52:43.390Z,0
2016-12-28T03:53:23.942Z,0
2016-12-28T03:54:04.454Z,0
2016-12-28T03:54:44.984Z,0
2016-12-28T03:55:25.502Z,0
2016-12-28T03:56:06.038Z,0
2016-12-28T03:56:46.570Z,0
2016-12-28T03:57:27.088Z,0
2016-12-28T03:58:07.623Z,0
2016-12-28T03:58:48.198Z,0
2016-12-28T03:59:28.732Z,0
2016-12-28T04:00:09.267Z,0
2016-12-28T04:00:49.795Z,0
2016-12-28T04:01:30.327Z,0
2016-12-28T04:02:10.865Z,0
2016-12-28T04:02:51.394Z,0
2016-12-28T04:03:31.927Z,0
2016-12-28T04:04:12.465Z,0
2016-12-28T04:04:52.998Z,0
2016-12-28T04:05:33.526Z,0
2016-12-28T04:06:14.068Z,0
2016-12-28T04:06:54.585Z,0
2016-12-28T04:07:35.126Z,0
2016-12-28T04:08:15.651Z,0
2016-12-28T04:08:56.181Z,0
2016-12-28T04:09:36.713Z,0
2016-12-28T04:10:17.245Z,0
2016-12-28T04:10:57.770Z,0
2016-12-28T04:11:38.301Z,0
2016-12-28T04:12:18.839Z,0
2016-12-28T04:12:59.415Z,0
2016-12-28T04:13:39.946Z,0
2016-12-28T04:14:20.474Z,0
2016-12-28T04:15:01.006Z,0
2016-12-28T04:15:41.539Z,0
2016-12-28T04:16:22.076Z,0
2016-12-28T04:17:02.607Z,0
2016-12-28T04:17:43.141Z,0
2016-12-28T04:18:23.669Z,0
2016-12-28T04:19:04.203Z,0
2016-12-28T04:19:44.742Z,0
2016-12-28T04:20:25.278Z,0
2016-12-28T04:21:05.809Z,0
2016-12-28T04:21:46.347Z,0
2016-12-28T04:22:26.880Z,0
2016-12-28T04:23:07.411Z,0
2016-12-28T04:23:47.947Z,0
2016-12-28T04:24:28.478Z,0
2016-12-28T04:25:09.013Z,0
2016-12-28T04:25:49.534Z,0
2016-12-28T04:26:30.067Z,0
2016-12-28T04:27:10.607Z,0
2016-12-28T04:27:51.117Z,0
2016-12-28T04:28:31.657Z,0
2016-12-28T04:29:12.176Z,0
2016-12-28T04:29:52.709Z,0
2016-12-28T04:30:33.233Z,0
2016-12-28T04:31:13.758Z,0
2016-12-28T04:31:54.286Z,0
2016-12-28T04:32:34.814Z,0
2016-12-28T04:33:15.348Z,0
2016-12-28T04:33:55.927Z,0
2016-12-28T04:34:36.459Z,0
2016-12-28T04:35:17.001Z,0
2016-12-28T04:35:57.536Z,0
2016-12-28T04:36:38.068Z,0
2016-12-28T04:37:18.596Z,0
2016-12-28T04:37:59.132Z,0
2016-12-28T04:38:39.661Z,0
2016-12-28T04:39:20.195Z,0
2016-12-28T04:40:00.710Z,0
2016-12-28T04:40:41.241Z,0
2016-12-28T04:41:21.763Z,0
2016-12-28T04:42:02.290Z,0
2016-12-28T04:42:42.819Z,0
2016-12-28T04:43:23.343Z,0
2016-12-28T04:44:03.869Z,0
2016-12-28T04:44:44.401Z,0
2016-12-28T04:45:24.933Z,0
2016-12-28T04:46:05.456Z,0
2016-12-28T04:46:45.985Z,0
2016-12-28T04:47:26.511Z,0
2016-12-28T04:48:07.086Z,0
2016-12-28T04:48:47.621Z,0
2016-12-28T04:49:28.152Z,0
2016-12-28T04:50:08.687Z,0
2016-12-28T04:50:49.222Z,0
2016-12-28T04:51:29.748Z,0
2016-12-28T04:52:10.275Z,0
2016-12-28T04:52:50.811Z,0
2016-12-28T04:53:31.347Z,0
2016-12-28T04:54:11.875Z,0
2016-12-28T04:54:52.415Z,0
2016-12-28T04:55:32.946Z,0
2016-12-28T04:56:13.477Z,0
2016-12-28T04:56:54.004Z,0
2016-12-28T04:57:34.537Z,0
2016-12-28T04:58:15.085Z,0
2016-12-28T04:58:55.620Z,0
2016-12-28T04:59:36.151Z,0
2016-12-28T05:00:16.687Z,0
2016-12-28T05:00:57.223Z,0
2016-12-28T05:01:37.761Z,0
2016-12-28T05:02:18.290Z,0
2016-12-28T05:02:58.834Z,0
2016-12-28T05:03:39.364Z,0
2016-12-28T05:04:19.893Z,0
2016-12-28T05:05:00.431Z,0
2016-12-28T05:05:42.883Z,0
2016-12-28T05:06:23.412Z,0
2016-12-28T05:07:03.940Z,0
2016-12-28T05:07:44.472Z,0
2016-12-28T05:08:25.004Z,0
2016-12-28T05:09:05.537Z,0
2016-12-28T05:09:46.063Z,0
2016-12-28T05:10:26.591Z,0
2016-12-28T05:11:07.122Z,0
2016-12-28T05:11:47.661Z,0
2016-12-28T05:12:28.187Z,0
2016-12-28T05:13:08.701Z,0
2016-12-28T05:13:49.229Z,0
2016-12-28T05:14:29.784Z,0
2016-12-28T05:15:10.286Z,0
2016-12-28T05:15:50.840Z,0
2016-12-28T05:16:31.373Z,0
2016-12-28T05:17:11.896Z,0
2016-12-28T05:17:52.440Z,0
2016-12-28T05:18:32.980Z,0
2016-12-28T05:19:13.516Z,0
2016-12-28T05:19:54.043Z,0
2016-12-28T05:20:34.564Z,0
2016-12-28T05:21:15.097Z,0
2016-12-28T05:21:55.637Z,0
2016-12-28T05:22:36.192Z,0
2016-12-28T05:23:16.705Z,0
2016-12-28T05:23:57.245Z,0
2016-12-28T05:24:37.777Z,0
2016-12-28T05:25:18.311Z,0
2016-12-28T05:25:58.841Z,0
2016-12-28T05:26:39.377Z,0
2016-12-28T05:27:19.911Z,0
2016-12-28T05:28:00.446Z,0
2016-12-28T05:28:40.979Z,0
2016-12-28T05:29:21.512Z,0
2016-12-28T05:30:02.047Z,0
2016-12-28T05:30:42.587Z,0
2016-12-28T05:31:23.120Z,0
2016-12-28T05:32:03.654Z,0
2016-12-28T05:32:44.219Z,0
2016-12-28T05:33:24.711Z,0
2016-12-28T05:34:05.244Z,0
2016-12-28T05:34:45.780Z,0
2016-12-28T05:35:26.342Z,0
2016-12-28T05:36:06.859Z,0
2016-12-28T05:36:47.393Z,0
2016-12-28T05:37:27.917Z,0
2016-12-28T05:38:08.447Z,0
2016-12-28T05:38:48.962Z,0
2016-12-28T05:39:29.478Z,0
2016-12-28T05:40:10.007Z,0
2016-12-28T05:40:50.548Z,0
2016-12-28T05:41:31.081Z,0
2016-12-28T05:42:11.613Z,0
2016-12-28T05:42:52.137Z,0
2016-12-28T05:43:32.672Z,0
2016-12-28T05:44:13.202Z,0
2016-12-28T05:44:53.740Z,0
2016-12-28T05:45:34.268Z,0
2016-12-28T05:46:14.815Z,0
2016-12-28T05:46:55.334Z,0
2016-12-28T05:47:35.863Z,0
2016-12-28T05:48:16.399Z,0
2016-12-28T05:48:56.939Z,0
2016-12-28T05:49:37.470Z,0
2016-12-28T05:50:18.017Z,0
2016-12-28T05:50:58.547Z,0
2016-12-28T05:51:39.092Z,0
2016-12-28T05:52:19.605Z,0
2016-12-28T05:53:00.136Z,0
2016-12-28T05:53:40.675Z,0
2016-12-28T05:54:21.195Z,0
2016-12-28T05:55:01.725Z,0
2016-12-28T05:55:42.258Z,0
2016-12-28T05:56:22.790Z,0
2016-12-28T05:57:03.318Z,0
2016-12-28T05:57:43.847Z,0
2016-12-28T05:58:24.374Z,0
2016-12-28T05:59:04.910Z,0
2016-12-28T05:59:45.438Z,0
2016-12-28T06:00:25.973Z,0
2016-12-28T06:01:06.494Z,0
2016-12-28T06:01:47.014Z,0
2016-12-28T06:02:27.554Z,0
2016-12-28T06:03:08.088Z,0
2016-12-28T06:03:48.616Z,0
2016-12-28T06:04:29.144Z,0
2016-12-28T06:05:09.679Z,0
2016-12-28T06:05:50.216Z,0
2016-12-28T06:06:30.765Z,0
2016-12-28T06:07:11.292Z,0
2016-12-28T06:07:51.838Z,0
2016-12-28T06:08:32.352Z,0
2016-12-28T06:09:12.881Z,0
2016-12-28T06:09:53.412Z,0
2016-12-28T06:10:33.945Z,0
2016-12-28T06:11:14.476Z,0
2016-12-28T06:11:55.006Z,0
2016-12-28T06:12:35.537Z,0
2016-12-28T06:13:16.073Z,0
2016-12-28T06:13:56.602Z,0
2016-12-28T06:14:37.137Z,0
2016-12-28T06:15:17.675Z,0
2016-12-28T06:15:58.192Z,0
2016-12-28T06:16:38.731Z,0
2016-12-28T06:17:19.259Z,0
2016-12-28T06:17:59.793Z,0
2016-12-28T06:18:40.327Z,0
2016-12-28T06:19:20.852Z,0
2016-12-28T06:20:01.410Z,0
2016-12-28T06:20:41.939Z,0
2016-12-28T06:21:22.472Z,0
2016-12-28T06:22:03.006Z,0
2016-12-28T06:22:43.541Z,0
2016-12-28T06:23:24.060Z,0
2016-12-28T06:24:04.591Z,0
2016-12-28T06:24:45.124Z,0
2016-12-28T06:25:25.662Z,0
2016-12-28T06:26:06.185Z,0
2016-12-28T06:26:46.712Z,0
2016-12-28T06:27:27.239Z,0
2016-12-28T06:28:09.419Z,0
2016-12-28T06:28:49.953Z,0
2016-12-28T06:29:30.477Z,0
2016-12-28T06:30:11.008Z,0
2016-12-28T06:30:51.537Z,0
2016-12-28T06:31:32.074Z,0
2016-12-28T06:32:12.612Z,0
2016-12-28T06:32:53.146Z,0
2016-12-28T06:33:33.674Z,0
2016-12-28T06:34:14.189Z,0
2016-12-28T06:34:54.727Z,0
2016-12-28T06:35:35.265Z,0
2016-12-28T06:36:15.815Z,0
2016-12-28T06:36:56.346Z,0
2016-12-28T06:37:36.875Z,0
2016-12-28T06:38:17.405Z,0
2016-12-28T06:38:57.938Z,0
2016-12-28T06:39:38.481Z,0
2016-12-28T06:40:19.015Z,0
2016-12-28T06:40:59.550Z,0
2016-12-28T06:41:40.087Z,0
2016-12-28T06:42:20.618Z,0
2016-12-28T06:43:01.159Z,0
2016-12-28T06:43:41.689Z,0
2016-12-28T06:44:22.228Z,0
2016-12-28T06:45:02.755Z,0
2016-12-28T06:45:43.300Z,0
2016-12-28T06:46:23.856Z,0
2016-12-28T06:47:04.399Z,0
2016-12-28T06:47:44.932Z,0
2016-12-28T06:48:25.472Z,0
2016-12-28T06:49:06.001Z,0
2016-12-28T06:49:46.539Z,0
2016-12-28T06:50:27.071Z,0
2016-12-28T06:51:07.605Z,0
2016-12-28T06:51:48.134Z,0
2016-12-28T06:52:28.667Z,0
2016-12-28T06:53:09.201Z,0
2016-12-28T06:53:49.736Z,0
2016-12-28T06:54:30.255Z,0
2016-12-28T06:55:10.781Z,0
2016-12-28T06:55:51.297Z,0
2016-12-28T06:56:31.842Z,0
2016-12-28T06:57:12.377Z,0
2016-12-28T06:57:52.911Z,0
2016-12-28T06:58:33.458Z,0
2016-12-28T06:59:13.987Z,0
2016-12-28T06:59:54.518Z,0
2016-12-28T07:00:35.048Z,0
2016-12-28T07:01:15.582Z,0
2016-12-28T07:01:56.123Z,0
2016-12-28T07:02:36.661Z,0
2016-12-28T07:03:17.170Z,0
2016-12-28T07:03:57.703Z,0
2016-12-28T07:04:38.228Z,0
2016-12-28T07:05:18.762Z,0
2016-12-28T07:05:59.295Z,0
2016-12-28T07:06:39.824Z,0
2016-12-28T07:07:20.359Z,0
2016-12-28T07:08:00.899Z,0
2016-12-28T07:08:41.458Z,0
2016-12-28T07:09:22.003Z,0
2016-12-28T07:10:02.519Z,4
2016-12-28T07:10:43.044Z,4
2016-12-28T07:11:23.576Z,4
2016-12-28T07:12:04.105Z,4
2016-12-28T07:12:44.635Z,4
2016-12-28T07:13:25.187Z,4
2016-12-28T07:14:05.704Z,4
2016-12-28T07:14:46.238Z,4
2016-12-28T07:15:26.779Z,8
2016-12-28T07:16:07.305Z,8
2016-12-28T07:16:47.830Z,4
2016-12-28T07:17:28.372Z,4
2016-12-28T07:18:08.907Z,8
2016-12-28T07:18:49.451Z,8
2016-12-28T07:19:29.974Z,8
2016-12-28T07:20:10.508Z,8
2016-12-28T07:20:51.026Z,8
2016-12-28T07:21:31.562Z,12
2016-12-28T07:22:12.081Z,8
2016-12-28T07:22:52.615Z,12
2016-12-28T07:23:33.150Z,12
2016-12-28T07:24:13.685Z,12
2016-12-28T07:24:54.219Z,12
2016-12-28T07:25:34.753Z,12
2016-12-28T07:26:15.313Z,16
2016-12-28T07:26:55.844Z,16
2016-12-28T07:27:36.375Z,16
2016-12-28T07:28:16.913Z,20
2016-12-28T07:28:57.432Z,20
2016-12-28T07:29:37.963Z,20
2016-12-28T07:30:18.488Z,20
2016-12-28T07:30:59.021Z,20
2016-12-28T07:31:39.588Z,24
2016-12-28T07:32:20.123Z,24
2016-12-28T07:33:00.666Z,28
2016-12-28T07:33:41.205Z,28
2016-12-28T07:34:21.710Z,28
2016-12-28T07:35:02.238Z,28
2016-12-28T07:35:42.770Z,32
2016-12-28T07:36:23.299Z,32
2016-12-28T07:37:03.811Z,32
2016-12-28T07:37:44.329Z,40
2016-12-28T07:38:24.867Z,44
2016-12-28T07:39:05.400Z,44
2016-12-28T07:39:45.931Z,44
2016-12-28T07:40:26.464Z,48
2016-12-28T07:41:07.005Z,52
2016-12-28T07:41:47.529Z,52
2016-12-28T07:42:28.061Z,56
2016-12-28T07:43:08.589Z,60
2016-12-28T07:43:49.129Z,60
2016-12-28T07:44:29.687Z,64
2016-12-28T07:45:10.194Z,64
2016-12-28T07:45:50.722Z,68
2016-12-28T07:46:31.242Z,72
2016-12-28T07:47:11.772Z,72
2016-12-28T07:47:52.306Z,76
2016-12-28T07:48:32.850Z,84
2016-12-28T07:49:13.389Z,92
2016-12-28T07:49:53.926Z,92
2016-12-28T07:50:34.459Z,100
2016-12-28T07:51:15.131Z,104
2016-12-28T07:51:55.669Z,104
2016-12-28T07:52:36.200Z,108
2016-12-28T07:53:16.737Z,116
2016-12-28T07:53:57.260Z,124
2016-12-28T07:54:37.791Z,136
2016-12-28T07:55:18.330Z,148
2016-12-28T07:55:58.862Z,156
2016-12-28T07:56:39.410Z,164
2016-12-28T07:57:19.932Z,172
2016-12-28T07:58:00.479Z,184
2016-12-28T07:58:41.002Z,192
2016-12-28T07:59:21.531Z,204
2016-12-28T08:00:02.062Z,212
2016-12-28T08:00:42.588Z,216
2016-12-28T08:01:23.106Z,228
2016-12-28T08:02:03.642Z,240
2016-12-28T08:02:44.181Z,244
2016-12-28T08:03:24.730Z,248
2016-12-28T08:04:05.728Z,248
2016-12-28T08:04:46.248Z,256
2016-12-28T08:05:26.788Z,268
2016-12-28T08:06:07.321Z,288
2016-12-28T08:06:47.842Z,324
2016-12-28T08:07:28.374Z,332
2016-12-28T08:08:08.911Z,328
2016-12-28T08:08:49.443Z,320
2016-12-28T08:09:29.974Z,312
2016-12-28T08:10:10.481Z,316
2016-12-28T08:10:51.015Z,320
2016-12-28T08:11:31.550Z,320
2016-12-28T08:12:12.074Z,328
2016-12-28T08:12:52.616Z,328
2016-12-28T08:13:33.160Z,316
2016-12-28T08:14:13.689Z,304
2016-12-28T08:14:54.213Z,300
2016-12-28T08:15:34.737Z,316
2016-12-28T08:16:15.257Z,336
2016-12-28T08:16:55.794Z,332
2016-12-28T08:17:36.318Z,340
2016-12-28T08:18:16.855Z,352
2016-12-28T08:18:57.384Z,364
2016-12-28T08:19:37.923Z,396
2016-12-28T08:20:18.518Z,444
2016-12-28T08:20:59.055Z,476
2016-12-28T08:21:39.591Z,480
2016-12-28T08:22:20.157Z,468
2016-12-28T08:23:00.669Z,456
2016-12-28T08:23:41.202Z,448
2016-12-28T08:24:21.729Z,448
2016-12-28T08:25:02.258Z,476
2016-12-28T08:25:42.784Z,496
2016-12-28T08:26:23.319Z,500
2016-12-28T08:27:03.851Z,540
2016-12-28T08:27:44.451Z,596
2016-12-28T08:28:24.991Z,652
2016-12-28T08:29:05.526Z,672
2016-12-28T08:29:46.059Z,636
2016-12-28T08:30:26.588Z,592
2016-12-28T08:31:07.119Z,556
2016-12-28T08:31:47.645Z,532
2016-12-28T08:32:28.215Z,548
2016-12-28T08:33:08.746Z,596
2016-12-28T08:33:49.280Z,672
2016-12-28T08:34:29.814Z,712
2016-12-28T08:35:10.349Z,724
2016-12-28T08:35:50.876Z,864
2016-12-28T08:36:31.407Z,1012
2016-12-28T08:37:11.933Z,988
2016-12-28T08:37:52.471Z,984
2016-12-28T08:38:33.002Z,944
2016-12-28T08:39:13.540Z,872
2016-12-28T08:39:54.083Z,828
2016-12-28T08:40:34.640Z,876
2016-12-28T08:41:15.175Z,900
2016-12-28T08:41:55.689Z,980
2016-12-28T08:42:36.233Z,1112
2016-12-28T08:43:16.762Z,1080
2016-12-28T08:43:57.300Z,980
2016-12-28T08:44:37.837Z,1072
2016-12-28T08:45:18.346Z,1216
2016-12-28T08:45:58.906Z,1268
2016-12-28T08:46:39.420Z,1304
2016-12-28T08:47:19.942Z,1372
2016-12-28T08:48:00.477Z,1364
2016-12-28T08:48:41.024Z,1324
2016-12-28T08:49:21.551Z,1244
2016-12-28T08:50:02.074Z,1112
2016-12-28T08:50:42.591Z,1188
2016-12-28T08:51:23.126Z,1364
2016-12-28T08:52:03.647Z,1612
2016-12-28T08:52:44.180Z,1608
2016-12-28T08:53:24.706Z,1420
2016-12-28T08:54:05.225Z,1284
2016-12-28T08:54:45.758Z,1160
2016-12-28T08:55:26.291Z,1132
2016-12-28T08:56:06.823Z,1076
2016-12-28T08:56:47.339Z,960
2016-12-28T08:57:27.839Z,924
2016-12-28T08:58:08.379Z,1000
2016-12-28T08:58:48.874Z,1088
2016-12-28T08:59:29.407Z,1220
2016-12-28T09:00:09.938Z,1308
2016-12-28T09:00:50.466Z,1364
2016-12-28T09:01:31.076Z,1188
2016-12-28T09:02:11.616Z,1020
2016-12-28T09:02:52.145Z,876
2016-12-28T09:03:32.691Z,856
2016-12-28T09:04:13.227Z,800
2016-12-28T09:04:53.759Z,788
2016-12-28T09:05:34.283Z,820
2016-12-28T09:06:14.829Z,864
2016-12-28T09:06:55.363Z,912
2016-12-28T09:07:35.893Z,1012
2016-12-28T09:08:16.412Z,1108
2016-12-28T09:08:56.932Z,1140
2016-12-28T09:09:37.473Z,1172
2016-12-28T09:10:18.002Z,1124
2016-12-28T09:10:58.540Z,1144
2016-12-28T09:11:39.071Z,1180
2016-12-28T09:12:19.594Z,1084
2016-12-28T09:13:00.127Z,1020
2016-12-28T09:13:40.663Z,1056
2016-12-28T09:14:21.223Z,1116
2016-12-28T09:15:01.757Z,1084
2016-12-28T09:15:42.273Z,1104
2016-12-28T09:16:22.796Z,1144
2016-12-28T09:17:03.324Z,1180
2016-12-28T09:17:43.857Z,1112
2016-12-28T09:18:24.377Z,1088
2016-12-28T09:19:04.900Z,1108
2016-12-28T09:19:45.431Z,1060
2016-12-28T09:20:25.964Z,1016
2016-12-28T09:21:06.497Z,1160
2016-12-28T09:21:47.024Z,1332
2016-12-28T09:22:27.553Z,1264
2016-12-28T09:23:08.086Z,1120
2016-12-28T09:23:48.623Z,1076
2016-12-28T09:24:29.158Z,1116
2016-12-28T09:25:09.697Z,1180
2016-12-28T09:25:50.229Z,1212
2016-12-28T09:26:30.745Z,1196
2016-12-28T09:27:11.284Z,1176
2016-12-28T09:27:51.820Z,1232
2016-12-28T09:28:32.348Z,1284
2016-12-28T09:29:12.891Z,1276
2016-12-28T09:29:53.421Z,1172
2016-12-28T09:30:33.937Z,1104
2016-12-28T09:31:14.493Z,1120
2016-12-28T09:31:55.029Z,1304
2016-12-28T09:32:35.556Z,1528
2016-12-28T09:33:16.088Z,1688
2016-12-28T09:33:56.622Z,1652
2016-12-28T09:34:37.164Z,1616
2016-12-28T09:35:17.698Z,1644
2016-12-28T09:35:58.231Z,1592
2016-12-28T09:36:38.767Z,1540
2016-12-28T09:37:19.288Z,1460
2016-12-28T09:37:59.807Z,1444
2016-12-28T09:38:40.341Z,1480
2016-12-28T09:39:20.877Z,1612
2016-12-28T09:40:01.407Z,1864
2016-12-28T09:40:43.661Z,1928
2016-12-28T09:41:24.190Z,1688
2016-12-28T09:42:04.746Z,1524
2016-12-28T09:42:45.280Z,1456
2016-12-28T09:43:25.811Z,1444
2016-12-28T09:44:06.337Z,1692
2016-12-28T09:44:46.870Z,1912
2016-12-28T09:45:27.397Z,1952
2016-12-28T09:46:07.934Z,1968
2016-12-28T09:46:48.461Z,2068
2016-12-28T09:47:29.000Z,2100
2016-12-28T09:48:09.530Z,2148
2016-12-28T09:48:50.050Z,2288
2016-12-28T09:49:30.594Z,2496
2016-12-28T09:50:11.136Z,2540
2016-12-28T09:50:51.654Z,2444
2016-12-28T09:51:32.180Z,2324
2016-12-28T09:52:12.713Z,2148
2016-12-28T09:52:53.243Z,1992
2016-12-28T09:53:33.805Z,1912
2016-12-28T09:54:14.309Z,1976
2016-12-28T09:54:54.845Z,1948
2016-12-28T09:55:35.374Z,2168
2016-12-28T09:56:15.906Z,2216
2016-12-28T09:56:56.429Z,2224
2016-12-28T09:57:36.966Z,2188
2016-12-28T09:58:17.514Z,2172
2016-12-28T09:58:58.038Z,2096
2016-12-28T09:59:38.575Z,2016
2016-12-28T10:00:19.098Z,1848
2016-12-28T10:00:59.616Z,1744
2016-12-28T10:01:40.154Z,1668
2016-12-28T10:02:20.669Z,1672
2016-12-28T10:03:01.199Z,1908
2016-12-28T10:03:41.744Z,2168
2016-12-28T10:04:22.277Z,2340
2016-12-28T10:05:02.811Z,2444
2016-12-28T10:05:43.349Z,2460
2016-12-28T10:06:23.871Z,2316
2016-12-28T10:07:04.424Z,2132
2016-12-28T10:07:44.933Z,2088
2016-12-28T10:08:25.471Z,2180
2016-12-28T10:09:06.000Z,2480
2016-12-28T10:09:46.526Z,2604
2016-12-28T10:10:27.058Z,2488
2016-12-28T10:11:07.608Z,2376